Time;durP1;ratioP1;P1;durP2;ratioP2;P2;SDS_P1;SDS_P2;PMS_P1;PMS_P2;Temp;Humidity;BMP_temperature;BMP_pressure;BME280_temperature;BME280_humidity;BME280_pressure;Samples;Min_cycle;Max_cycle;Signal;HPM_P1;HPM_P2
2023/03/18 00:01:37;;;;;;;6.38;2.63;;;;;;;;;;5030494;28;20038;-60
2023/03/18 00:04:03;;;;;;;8.95;2.80;;;;;;;;;;5031495;28;20039;-60
2023/03/18 00:06:29;;;;;;;6.10;2.70;;;;;;;;;;5029170;28;20185;-60
2023/03/18 00:08:54;;;;;;;9.95;2.90;;;;;;;;;;5028677;28;20075;-60
2023/03/18 00:11:20;;;;;;;5.65;2.33;;;;;;;;;;5027313;28;20029;-60
2023/03/18 00:13:47;;;;;;;5.95;2.53;;;;;;;;;;5029936;28;20029;-60
2023/03/18 00:16:13;;;;;;;6.30;2.88;;;;;;;;;;5029028;28;20441;-60
2023/03/18 00:18:40;;;;;;;6.32;2.42;;;;;;;;;;5028388;28;20037;-60
2023/03/18 00:21:06;;;;;;;5.82;2.50;;;;;;;;;;5021592;28;20382;-60
2023/03/18 00:23:32;;;;;;;5.60;2.58;;;;;;;;;;5030342;28;20034;-60
2023/03/18 00:26:01;;;;;;;7.13;2.53;;;;;;;;;;5028435;28;20072;-61
2023/03/18 00:28:28;;;;;;;10.38;2.80;;;;;;;;;;5030084;28;20421;-60
2023/03/18 00:30:55;;;;;;;6.97;2.70;;;;;;;;;;5030238;28;20037;-60
2023/03/18 00:33:22;;;;;;;8.30;3.15;;;;;;;;;;5022605;28;20057;-60
2023/03/18 00:35:47;;;;;;;7.15;2.97;;;;;;;;;;5018524;28;20076;-60
2023/03/18 00:38:20;;;;;;;5.80;2.78;;;;;;;;;;5029093;28;20442;-60
2023/03/18 00:41:00;;;;;;;6.53;2.72;;;;;;;;;;5026906;28;20036;-60
2023/03/18 00:43:28;;;;;;;7.10;3.17;;;;;;;;;;5029181;28;20021;-60
2023/03/18 00:45:55;;;;;;;7.05;3.45;;;;;;;;;;5030120;28;20045;-60
2023/03/18 00:48:22;;;;;;;7.00;2.90;;;;;;;;;;5010361;28;20164;-60
2023/03/18 00:50:48;;;;;;;7.50;2.80;;;;;;;;;;5030399;28;20471;-60
2023/03/18 00:53:14;;;;;;;5.75;2.50;;;;;;;;;;5029528;28;20076;-60
2023/03/18 00:55:40;;;;;;;5.57;2.75;;;;;;;;;;5028913;28;20966;-60
2023/03/18 00:58:07;;;;;;;7.68;2.90;;;;;;;;;;5029451;28;20037;-60
2023/03/18 01:00:34;;;;;;;14.05;3.13;;;;;;;;;;5028837;28;20029;-60
2023/03/18 01:03:00;;;;;;;9.32;3.00;;;;;;;;;;5030933;28;20078;-60
2023/03/18 01:05:26;;;;;;;7.28;2.88;;;;;;;;;;5029209;28;20080;-60
2023/03/18 01:07:51;;;;;;;11.48;3.45;;;;;;;;;;5028450;28;20033;-60
2023/03/18 01:10:18;;;;;;;7.40;3.03;;;;;;;;;;5028738;28;20505;-60
2023/03/18 01:12:46;;;;;;;8.15;2.83;;;;;;;;;;5027347;28;20060;-60
2023/03/18 01:15:15;;;;;;;8.27;2.97;;;;;;;;;;5012918;28;20501;-61
2023/03/18 01:17:41;;;;;;;11.60;3.08;;;;;;;;;;5012321;28;20038;-60
2023/03/18 01:20:10;;;;;;;6.80;3.08;;;;;;;;;;5022526;28;20038;-60
2023/03/18 01:22:36;;;;;;;8.70;3.00;;;;;;;;;;5027237;28;20070;-60
2023/03/18 01:25:02;;;;;;;8.35;3.03;;;;;;;;;;5028470;28;20041;-60
2023/03/18 01:27:27;;;;;;;6.45;2.80;;;;;;;;;;5010960;28;20038;-60
2023/03/18 01:29:53;;;;;;;8.60;3.08;;;;;;;;;;5030381;28;20133;-61
2023/03/18 01:32:19;;;;;;;5.78;3.00;;;;;;;;;;5031147;28;20075;-60
2023/03/18 01:34:44;;;;;;;7.03;3.20;;;;;;;;;;5027609;28;20041;-61
2023/03/18 01:37:10;;;;;;;7.93;2.70;;;;;;;;;;5029666;28;20037;-60
2023/03/18 01:39:36;;;;;;;8.07;3.10;;;;;;;;;;5025837;28;20474;-60
2023/03/18 01:42:02;;;;;;;8.88;3.10;;;;;;;;;;5027857;28;20064;-60
2023/03/18 01:44:28;;;;;;;9.98;3.20;;;;;;;;;;5028722;28;20481;-61
2023/03/18 01:46:53;;;;;;;7.85;2.80;;;;;;;;;;5030466;28;20053;-60
2023/03/18 01:49:33;;;;;;;8.68;2.95;;;;;;;;;;5028597;28;20072;-60
2023/03/18 01:52:23;;;;;;;6.33;3.00;;;;;;;;;;5029107;28;20545;-61
2023/03/18 01:54:57;;;;;;;7.05;3.08;;;;;;;;;;5025123;28;20274;-60
2023/03/18 01:57:23;;;;;;;7.97;2.90;;;;;;;;;;5021506;28;20505;-60
2023/03/18 01:59:52;;;;;;;9.57;3.00;;;;;;;;;;5038767;28;20036;-60
2023/03/18 02:02:19;;;;;;;8.27;3.13;;;;;;;;;;5034399;28;20041;-60
2023/03/18 02:04:50;;;;;;;7.18;3.10;;;;;;;;;;5030543;28;20037;-60
2023/03/18 02:07:21;;;;;;;9.00;3.05;;;;;;;;;;5032882;28;20059;-60
2023/03/18 02:09:48;;;;;;;6.60;3.10;;;;;;;;;;5031829;28;20040;-60
2023/03/18 02:12:22;;;;;;;8.77;3.30;;;;;;;;;;5032070;28;20029;-60
2023/03/18 02:14:49;;;;;;;6.20;3.00;;;;;;;;;;5030158;28;20029;-60
2023/03/18 02:17:19;;;;;;;8.23;3.08;;;;;;;;;;5034202;28;20072;-60
2023/03/18 02:20:15;;;;;;;7.82;2.90;;;;;;;;;;5029321;28;20079;-60
2023/03/18 02:22:47;;;;;;;9.43;3.08;;;;;;;;;;5030041;28;20092;-60
2023/03/18 02:25:40;;;;;;;7.50;3.08;;;;;;;;;;5029466;28;20037;-60
2023/03/18 02:28:19;;;;;;;6.40;2.97;;;;;;;;;;5019608;28;20486;-61
2023/03/18 02:30:55;;;;;;;6.68;3.00;;;;;;;;;;5033544;28;20390;-60
2023/03/18 02:33:24;;;;;;;7.63;3.10;;;;;;;;;;5032228;28;20060;-60
2023/03/18 02:35:55;;;;;;;9.52;3.13;;;;;;;;;;5032677;28;20049;-60
2023/03/18 02:38:20;;;;;;;7.18;3.50;;;;;;;;;;5032735;28;20060;-60
2023/03/18 02:40:47;;;;;;;8.07;3.00;;;;;;;;;;5013187;28;20555;-60
2023/03/18 02:43:19;;;;;;;8.70;3.25;;;;;;;;;;5032180;28;20091;-60
2023/03/18 02:45:56;;;;;;;8.75;3.50;;;;;;;;;;5030395;28;20056;-60
2023/03/18 02:48:24;;;;;;;7.30;3.40;;;;;;;;;;5031909;28;20492;-60
2023/03/18 02:50:50;;;;;;;8.15;3.13;;;;;;;;;;5031094;28;20030;-60
2023/03/18 02:53:16;;;;;;;7.72;3.10;;;;;;;;;;5032296;28;20083;-60
2023/03/18 02:55:42;;;;;;;6.65;2.90;;;;;;;;;;5029890;28;20029;-59
2023/03/18 02:58:08;;;;;;;6.70;3.05;;;;;;;;;;5031084;28;20171;-60
2023/03/18 03:00:34;;;;;;;7.85;2.90;;;;;;;;;;5030474;28;20049;-60
2023/03/18 03:03:00;;;;;;;8.73;3.40;;;;;;;;;;5032662;28;20045;-60
2023/03/18 03:05:26;;;;;;;6.47;3.00;;;;;;;;;;5031960;28;20033;-60
2023/03/18 03:07:52;;;;;;;11.32;3.50;;;;;;;;;;5031560;28;20031;-60
2023/03/18 03:10:17;;;;;;;5.43;2.80;;;;;;;;;;5029536;28;20029;-60
2023/03/18 03:12:43;;;;;;;7.03;3.03;;;;;;;;;;5013546;28;20465;-60
2023/03/18 03:15:08;;;;;;;7.95;3.50;;;;;;;;;;5031620;28;20032;-60
2023/03/18 03:17:34;;;;;;;6.68;3.42;;;;;;;;;;5031357;28;20048;-60
2023/03/18 03:20:00;;;;;;;9.27;3.30;;;;;;;;;;5030396;28;20038;-62
2023/03/18 03:22:26;;;;;;;9.05;3.25;;;;;;;;;;5030010;28;20033;-62
2023/03/18 03:24:52;;;;;;;7.53;3.33;;;;;;;;;;5030006;28;20087;-62
2023/03/18 03:27:18;;;;;;;9.07;3.22;;;;;;;;;;5031164;28;20112;-61
2023/03/18 03:29:43;;;;;;;7.15;3.10;;;;;;;;;;5030742;28;20415;-61
2023/03/18 03:32:09;;;;;;;10.80;3.33;;;;;;;;;;5030639;28;20037;-61
2023/03/18 03:34:35;;;;;;;7.32;3.30;;;;;;;;;;5031955;28;20374;-61
2023/03/18 03:37:00;;;;;;;10.18;3.47;;;;;;;;;;5031249;28;20037;-61
2023/03/18 03:39:26;;;;;;;7.22;3.15;;;;;;;;;;5031809;28;20132;-61
2023/03/18 03:41:52;;;;;;;6.25;3.30;;;;;;;;;;5027868;28;20088;-60
2023/03/18 03:44:18;;;;;;;7.60;3.20;;;;;;;;;;5029984;28;20515;-60
2023/03/18 03:46:44;;;;;;;8.98;3.15;;;;;;;;;;5030312;28;20135;-61
2023/03/18 03:49:10;;;;;;;6.75;3.22;;;;;;;;;;5031417;28;20474;-60
2023/03/18 03:51:36;;;;;;;7.00;3.28;;;;;;;;;;5029233;28;20045;-60
2023/03/18 03:54:02;;;;;;;6.20;3.25;;;;;;;;;;5031800;28;20089;-61
2023/03/18 03:56:28;;;;;;;6.25;3.22;;;;;;;;;;5031374;28;20043;-61
2023/03/18 03:58:53;;;;;;;7.43;3.40;;;;;;;;;;5030787;28;20612;-60
2023/03/18 04:01:18;;;;;;;8.32;4.40;;;;;;;;;;5031944;28;20435;-60
2023/03/18 04:03:44;;;;;;;7.78;3.65;;;;;;;;;;5030993;28;20045;-61
2023/03/18 04:06:10;;;;;;;8.13;3.58;;;;;;;;;;5029604;28;20033;-61
2023/03/18 04:08:35;;;;;;;8.02;3.50;;;;;;;;;;5031190;28;20021;-61
2023/03/18 04:11:02;;;;;;;4.95;3.10;;;;;;;;;;5031302;28;20025;-60
2023/03/18 04:13:27;;;;;;;7.03;3.63;;;;;;;;;;5032132;28;20042;-60
2023/03/18 04:15:53;;;;;;;6.43;3.50;;;;;;;;;;5033919;28;20034;-60
2023/03/18 04:18:19;;;;;;;8.27;3.60;;;;;;;;;;5031486;28;20470;-61
2023/03/18 04:20:45;;;;;;;7.05;3.70;;;;;;;;;;5030793;28;20029;-60
2023/03/18 04:23:10;;;;;;;6.43;3.58;;;;;;;;;;5013941;28;20343;-60
2023/03/18 04:25:36;;;;;;;7.80;3.35;;;;;;;;;;5029994;28;20037;-61
2023/03/18 04:28:02;;;;;;;7.85;3.50;;;;;;;;;;5031458;28;20459;-60
2023/03/18 04:30:27;;;;;;;6.45;3.40;;;;;;;;;;5031201;28;20040;-60
2023/03/18 04:32:53;;;;;;;8.65;4.25;;;;;;;;;;5031012;28;20518;-60
2023/03/18 04:35:22;;;;;;;9.40;4.00;;;;;;;;;;5030113;28;20075;-60
2023/03/18 04:37:47;;;;;;;9.50;3.45;;;;;;;;;;5029508;28;20041;-60
2023/03/18 04:40:13;;;;;;;8.00;4.00;;;;;;;;;;5031721;28;20406;-60
2023/03/18 04:42:39;;;;;;;6.13;3.67;;;;;;;;;;5030317;28;20168;-61
2023/03/18 04:45:05;;;;;;;8.45;3.72;;;;;;;;;;5030342;28;20064;-60
2023/03/18 04:47:32;;;;;;;10.38;4.10;;;;;;;;;;5030246;28;20037;-61
2023/03/18 04:49:57;;;;;;;9.40;3.70;;;;;;;;;;5030374;28;20115;-60
2023/03/18 04:52:23;;;;;;;9.60;4.15;;;;;;;;;;5031477;28;20042;-60
2023/03/18 04:54:49;;;;;;;7.85;4.00;;;;;;;;;;5029462;28;20034;-60
2023/03/18 04:57:15;;;;;;;7.95;4.00;;;;;;;;;;5030620;28;20033;-61
2023/03/18 04:59:41;;;;;;;9.77;4.20;;;;;;;;;;5033774;28;20029;-60
2023/03/18 05:02:07;;;;;;;7.88;3.72;;;;;;;;;;5051328;28;20044;-60
2023/03/18 05:04:33;;;;;;;10.50;4.40;;;;;;;;;;5034476;28;20030;-60
2023/03/18 05:06:58;;;;;;;7.75;4.35;;;;;;;;;;5030570;28;20034;-60
2023/03/18 05:09:24;;;;;;;8.82;4.25;;;;;;;;;;5030870;28;20354;-60
2023/03/18 05:11:49;;;;;;;9.73;4.38;;;;;;;;;;5030108;28;20481;-60
2023/03/18 05:14:15;;;;;;;8.57;4.63;;;;;;;;;;5027860;28;20351;-60
2023/03/18 05:16:41;;;;;;;12.27;4.63;;;;;;;;;;5026431;28;20362;-61
2023/03/18 05:19:08;;;;;;;8.93;4.30;;;;;;;;;;5030638;28;20041;-60
2023/03/18 05:21:34;;;;;;;9.02;4.30;;;;;;;;;;5031417;28;20029;-60
2023/03/18 05:24:00;;;;;;;7.93;4.47;;;;;;;;;;5029817;28;20042;-60
2023/03/18 05:26:26;;;;;;;7.05;4.07;;;;;;;;;;5030629;28;20470;-60
2023/03/18 05:28:52;;;;;;;12.65;4.60;;;;;;;;;;5029805;28;20037;-60
2023/03/18 05:31:18;;;;;;;8.02;4.57;;;;;;;;;;5030770;28;20033;-60
2023/03/18 05:33:45;;;;;;;9.15;4.82;;;;;;;;;;5032471;28;20030;-60
2023/03/18 05:36:10;;;;;;;7.70;4.60;;;;;;;;;;5033416;28;20124;-60
2023/03/18 05:38:36;;;;;;;7.72;5.13;;;;;;;;;;5034227;28;20431;-61
2023/03/18 05:41:01;;;;;;;9.43;5.15;;;;;;;;;;5034240;28;20091;-62
2023/03/18 05:43:27;;;;;;;11.38;5.20;;;;;;;;;;5037019;28;20040;-61
2023/03/18 05:45:53;;;;;;;8.40;4.90;;;;;;;;;;5032985;28;20141;-61
2023/03/18 05:48:18;;;;;;;11.32;4.88;;;;;;;;;;5034356;28;20041;-61
2023/03/18 05:50:44;;;;;;;8.68;4.75;;;;;;;;;;5034098;28;20088;-60
2023/03/18 05:53:10;;;;;;;9.80;5.05;;;;;;;;;;5034142;28;20223;-60
2023/03/18 05:55:37;;;;;;;9.52;4.80;;;;;;;;;;5034104;28;20033;-62
2023/03/18 05:58:03;;;;;;;11.23;4.90;;;;;;;;;;5033825;28;20037;-59
2023/03/18 06:00:29;;;;;;;9.77;4.85;;;;;;;;;;5034700;28;20030;-62
2023/03/18 06:02:57;;;;;;;9.18;5.13;;;;;;;;;;5032785;28;20108;-59
2023/03/18 06:05:23;;;;;;;10.10;5.07;;;;;;;;;;5016142;28;20433;-60
2023/03/18 06:07:49;;;;;;;11.10;4.85;;;;;;;;;;5033711;28;20060;-60
2023/03/18 06:10:16;;;;;;;9.15;4.88;;;;;;;;;;5033669;28;20038;-62
2023/03/18 06:12:43;;;;;;;9.73;4.70;;;;;;;;;;5033749;28;20029;-62
2023/03/18 06:15:10;;;;;;;9.90;5.10;;;;;;;;;;5033905;28;20390;-62
2023/03/18 06:17:36;;;;;;;7.70;4.80;;;;;;;;;;5034435;28;20044;-61
2023/03/18 06:20:04;;;;;;;8.70;4.40;;;;;;;;;;5031393;28;20038;-61
2023/03/18 06:22:31;;;;;;;9.88;4.80;;;;;;;;;;5034292;28;20069;-62
2023/03/18 06:24:57;;;;;;;7.93;4.65;;;;;;;;;;5032630;28;20041;-61
2023/03/18 06:27:22;;;;;;;9.88;5.13;;;;;;;;;;5033055;28;20037;-61
2023/03/18 06:29:48;;;;;;;10.20;4.63;;;;;;;;;;5032064;28;20029;-62
2023/03/18 06:32:14;;;;;;;9.20;5.03;;;;;;;;;;5027370;28;20065;-60
2023/03/18 06:34:39;;;;;;;8.80;4.80;;;;;;;;;;5032566;28;20025;-60
2023/03/18 06:37:05;;;;;;;10.63;4.68;;;;;;;;;;5032149;28;20036;-60
2023/03/18 06:39:30;;;;;;;10.02;4.88;;;;;;;;;;5035330;28;20029;-60
2023/03/18 06:41:56;;;;;;;8.35;4.78;;;;;;;;;;5031511;28;20052;-60
2023/03/18 06:44:22;;;;;;;7.05;4.70;;;;;;;;;;5030332;28;20038;-64
2023/03/18 06:46:48;;;;;;;11.85;4.80;;;;;;;;;;5031585;28;20193;-64
2023/03/18 06:49:13;;;;;;;9.48;4.50;;;;;;;;;;5033410;28;20147;-63
2023/03/18 06:51:40;;;;;;;10.15;5.30;;;;;;;;;;5032579;28;20033;-64
2023/03/18 06:54:06;;;;;;;10.95;5.22;;;;;;;;;;5033962;28;20038;-64
2023/03/18 06:56:37;;;;;;;12.35;5.25;;;;;;;;;;5015153;28;20380;-64
2023/03/18 06:59:04;;;;;;;10.52;5.60;;;;;;;;;;5032327;28;20292;-63
2023/03/18 07:01:31;;;;;;;11.80;6.25;;;;;;;;;;5033648;28;20116;-64
2023/03/18 07:03:59;;;;;;;13.45;7.10;;;;;;;;;;5031718;28;20041;-64
2023/03/18 07:06:25;;;;;;;10.05;5.88;;;;;;;;;;5032996;28;20390;-64
2023/03/18 07:08:51;;;;;;;12.02;6.25;;;;;;;;;;5023506;28;20049;-65
2023/03/18 07:11:17;;;;;;;11.48;6.05;;;;;;;;;;5032911;28;20038;-65
2023/03/18 07:13:43;;;;;;;11.40;5.75;;;;;;;;;;5031892;28;20493;-64
2023/03/18 07:16:09;;;;;;;15.48;5.95;;;;;;;;;;5032887;28;20113;-64
2023/03/18 07:18:36;;;;;;;12.60;6.18;;;;;;;;;;5035287;28;20033;-64
2023/03/18 07:21:01;;;;;;;9.98;5.47;;;;;;;;;;5032016;28;20047;-65
2023/03/18 07:23:27;;;;;;;10.63;6.03;;;;;;;;;;5030741;28;20111;-64
2023/03/18 07:25:53;;;;;;;12.43;5.60;;;;;;;;;;5031612;28;20029;-66
2023/03/18 07:28:18;;;;;;;9.20;5.75;;;;;;;;;;5030322;28;20034;-64
2023/03/18 07:30:45;;;;;;;11.05;5.88;;;;;;;;;;5031991;28;20033;-64
2023/03/18 07:33:11;;;;;;;12.93;6.28;;;;;;;;;;5031655;28;20545;-63
2023/03/18 07:35:39;;;;;;;12.95;6.15;;;;;;;;;;5031594;28;20153;-65
2023/03/18 07:38:05;;;;;;;9.05;5.32;;;;;;;;;;5030016;28;20033;-66
2023/03/18 07:40:31;;;;;;;11.98;6.38;;;;;;;;;;5028573;28;20112;-65
2023/03/18 07:42:56;;;;;;;8.43;5.65;;;;;;;;;;5031036;28;20112;-64
2023/03/18 07:45:22;;;;;;;10.73;5.53;;;;;;;;;;5030824;28;20116;-64
2023/03/18 07:47:48;;;;;;;10.02;5.50;;;;;;;;;;5031718;28;20087;-64
2023/03/18 07:50:14;;;;;;;11.57;5.53;;;;;;;;;;5030241;28;20033;-64
2023/03/18 07:52:39;;;;;;;8.13;5.03;;;;;;;;;;5032423;28;20025;-64
2023/03/18 07:55:05;;;;;;;11.40;6.00;;;;;;;;;;5030188;28;20165;-65
2023/03/18 07:57:30;;;;;;;15.32;6.32;;;;;;;;;;5032154;28;20462;-64
2023/03/18 07:59:55;;;;;;;9.35;5.82;;;;;;;;;;5029012;28;20029;-64
2023/03/18 08:02:22;;;;;;;10.55;6.55;;;;;;;;;;5031451;28;20030;-64
2023/03/18 08:04:47;;;;;;;11.38;5.63;;;;;;;;;;5013126;28;20029;-64
2023/03/18 08:07:13;;;;;;;12.00;5.28;;;;;;;;;;5031729;28;20052;-64
2023/03/18 08:09:38;;;;;;;10.45;6.13;;;;;;;;;;5029537;28;20117;-65
2023/03/18 08:12:04;;;;;;;13.43;5.35;;;;;;;;;;5030703;28;20034;-64
2023/03/18 08:14:30;;;;;;;9.75;5.60;;;;;;;;;;5027938;28;20045;-64
2023/03/18 08:16:55;;;;;;;9.98;5.85;;;;;;;;;;5041510;28;20018;-64
2023/03/18 08:19:21;;;;;;;11.50;5.28;;;;;;;;;;5031648;28;20048;-64
2023/03/18 08:21:46;;;;;;;10.15;5.80;;;;;;;;;;5031880;28;20029;-64
2023/03/18 08:24:12;;;;;;;10.48;5.95;;;;;;;;;;5030608;28;20091;-64
2023/03/18 08:26:37;;;;;;;10.10;5.70;;;;;;;;;;5030974;28;20037;-64
2023/03/18 08:29:03;;;;;;;7.75;4.43;;;;;;;;;;5028207;28;20041;-64
2023/03/18 08:31:28;;;;;;;10.65;5.65;;;;;;;;;;5031830;28;20343;-63
2023/03/18 08:33:55;;;;;;;9.27;5.28;;;;;;;;;;5028170;28;20038;-64
2023/03/18 08:36:21;;;;;;;9.48;4.38;;;;;;;;;;5020207;28;20540;-64
2023/03/18 08:38:47;;;;;;;8.82;5.15;;;;;;;;;;5031164;28;20113;-64
2023/03/18 08:41:13;;;;;;;8.93;5.45;;;;;;;;;;5030692;28;20112;-64
2023/03/18 08:43:38;;;;;;;9.52;4.35;;;;;;;;;;5030990;28;20030;-64
2023/03/18 08:46:05;;;;;;;8.13;4.90;;;;;;;;;;5029928;28;20477;-64
2023/03/18 08:48:31;;;;;;;8.80;4.95;;;;;;;;;;5027166;28;20037;-64
2023/03/18 08:50:57;;;;;;;6.90;4.45;;;;;;;;;;5029197;28;20115;-65
2023/03/18 08:53:22;;;;;;;7.70;4.53;;;;;;;;;;5009219;28;20121;-64
2023/03/18 08:55:48;;;;;;;6.90;4.38;;;;;;;;;;5022047;28;20033;-64
2023/03/18 08:58:13;;;;;;;7.90;4.63;;;;;;;;;;5030898;28;20026;-65
2023/03/18 09:00:40;;;;;;;9.27;4.47;;;;;;;;;;5029570;28;20446;-64
2023/03/18 09:03:06;;;;;;;7.78;4.70;;;;;;;;;;5030604;28;20371;-65
2023/03/18 09:05:32;;;;;;;7.00;4.30;;;;;;;;;;5030377;28;20033;-65
2023/03/18 09:07:59;;;;;;;5.82;3.83;;;;;;;;;;5030083;28;20116;-65
2023/03/18 09:10:25;;;;;;;6.75;3.40;;;;;;;;;;5035080;28;20029;-64
2023/03/18 09:12:50;;;;;;;7.40;3.83;;;;;;;;;;5034865;28;20069;-64
2023/03/18 09:15:19;;;;;;;5.75;3.72;;;;;;;;;;5034297;28;20119;-64
2023/03/18 09:17:44;;;;;;;9.45;3.88;;;;;;;;;;5034377;28;20038;-64
2023/03/18 09:20:12;;;;;;;7.13;3.60;;;;;;;;;;5016624;28;20668;-64
2023/03/18 09:22:39;;;;;;;7.10;3.40;;;;;;;;;;5016110;28;20030;-63
2023/03/18 09:25:05;;;;;;;5.45;3.08;;;;;;;;;;5033286;28;20033;-62
2023/03/18 09:27:31;;;;;;;5.00;3.10;;;;;;;;;;5033096;28;20037;-65
2023/03/18 09:29:56;;;;;;;4.47;2.92;;;;;;;;;;5014554;28;20045;-66
2023/03/18 09:32:22;;;;;;;5.22;3.20;;;;;;;;;;5034910;28;20026;-65
2023/03/18 09:34:47;;;;;;;5.65;3.13;;;;;;;;;;5034381;28;20029;-65
2023/03/18 09:37:13;;;;;;;7.82;3.28;;;;;;;;;;5036677;28;20029;-65
2023/03/18 09:39:40;;;;;;;7.47;3.45;;;;;;;;;;5030322;28;20477;-64
2023/03/18 09:42:24;;;;;;;6.28;3.47;;;;;;;;;;5030860;28;20040;-65
2023/03/18 09:44:55;;;;;;;8.13;3.08;;;;;;;;;;5013048;28;20029;-64
2023/03/18 09:47:46;;;;;;;5.70;3.00;;;;;;;;;;5034236;28;20046;-65
2023/03/18 09:50:27;;;;;;;3.97;2.70;;;;;;;;;;5033684;28;20646;-64
2023/03/18 09:53:08;;;;;;;4.90;2.75;;;;;;;;;;5034706;28;20030;-65
2023/03/18 09:55:45;;;;;;;5.82;2.90;;;;;;;;;;5032294;28;20493;-65
2023/03/18 09:58:28;;;;;;;6.50;2.88;;;;;;;;;;5033102;28;20047;-65
2023/03/18 10:01:03;;;;;;;6.65;2.83;;;;;;;;;;5034260;28;20179;-65
2023/03/18 10:03:40;;;;;;;5.70;2.90;;;;;;;;;;5032072;28;20033;-66
2023/03/18 10:06:17;;;;;;;5.57;2.95;;;;;;;;;;5013580;28;20037;-65
2023/03/18 10:08:51;;;;;;;6.20;2.85;;;;;;;;;;5031463;28;20419;-64
2023/03/18 10:11:31;;;;;;;3.72;2.85;;;;;;;;;;5033102;28;20029;-64
2023/03/18 10:14:10;;;;;;;4.78;3.00;;;;;;;;;;5031260;28;20124;-66
2023/03/18 10:17:04;;;;;;;6.03;3.20;;;;;;;;;;5031581;28;20045;-66
2023/03/18 10:19:31;;;;;;;4.28;3.13;;;;;;;;;;5014517;28;20045;-65
2023/03/18 10:22:24;;;;;;;5.68;3.20;;;;;;;;;;5028685;28;20033;-65
2023/03/18 10:25:18;;;;;;;4.05;2.88;;;;;;;;;;5032538;28;20521;-64
2023/03/18 10:28:02;;;;;;;7.07;3.03;;;;;;;;;;5033566;28;20029;-63
2023/03/18 10:30:28;;;;;;;3.42;2.60;;;;;;;;;;5032643;28;20029;-64
2023/03/18 10:32:53;;;;;;;4.43;2.80;;;;;;;;;;5029941;28;20029;-65
2023/03/18 10:35:30;;;;;;;5.32;2.92;;;;;;;;;;5032559;28;20030;-63
2023/03/18 10:38:09;;;;;;;5.43;2.60;;;;;;;;;;5032543;28;20371;-64
2023/03/18 10:40:38;;;;;;;4.35;2.78;;;;;;;;;;5033176;28;20125;-63
2023/03/18 10:43:18;;;;;;;5.43;2.70;;;;;;;;;;5030117;28;20033;-64
2023/03/18 10:45:47;;;;;;;3.55;2.42;;;;;;;;;;5033626;28;20046;-65
2023/03/18 10:48:41;;;;;;;5.68;2.40;;;;;;;;;;5032507;28;20112;-65
2023/03/18 10:51:19;;;;;;;3.58;2.60;;;;;;;;;;5018619;28;20050;-64
2023/03/18 10:54:09;;;;;;;3.13;2.60;;;;;;;;;;5033291;28;20037;-64
2023/03/18 10:56:35;;;;;;;4.80;2.90;;;;;;;;;;5033416;28;20037;-64
2023/03/18 10:59:04;;;;;;;5.30;2.90;;;;;;;;;;5028028;28;20041;-64
2023/03/18 11:01:30;;;;;;;4.63;2.60;;;;;;;;;;5032506;28;20504;-64
2023/03/18 11:04:02;;;;;;;4.22;2.55;;;;;;;;;;5032905;28;20116;-64
2023/03/18 11:06:46;;;;;;;3.53;2.00;;;;;;;;;;5029794;28;20426;-65
2023/03/18 11:09:18;;;;;;;4.55;2.25;;;;;;;;;;5031460;28;20449;-65
2023/03/18 11:11:47;;;;;;;4.63;3.00;;;;;;;;;;5033474;28;20041;-64
2023/03/18 11:14:21;;;;;;;4.15;2.67;;;;;;;;;;5032394;28;20417;-65
2023/03/18 11:16:57;;;;;;;3.55;2.55;;;;;;;;;;5033260;28;20432;-64
2023/03/18 11:19:46;;;;;;;4.43;2.80;;;;;;;;;;5032689;28;20037;-64
2023/03/18 11:22:21;;;;;;;4.50;2.90;;;;;;;;;;5014551;28;20481;-64
2023/03/18 11:25:00;;;;;;;4.55;2.75;;;;;;;;;;5033028;28;20037;-64
2023/03/18 11:27:34;;;;;;;4.85;3.03;;;;;;;;;;5032449;28;20481;-64
2023/03/18 11:30:04;;;;;;;5.53;2.70;;;;;;;;;;5032262;28;20065;-64
2023/03/18 11:32:31;;;;;;;4.10;2.80;;;;;;;;;;5032193;28;20041;-65
2023/03/18 11:35:01;;;;;;;5.18;3.17;;;;;;;;;;5032360;28;20038;-64
2023/03/18 11:37:39;;;;;;;3.78;2.63;;;;;;;;;;5034877;28;20029;-64
2023/03/18 11:40:11;;;;;;;4.40;2.50;;;;;;;;;;5018023;28;20099;-62
2023/03/18 11:42:39;;;;;;;3.25;2.40;;;;;;;;;;5035100;28;20029;-62
2023/03/18 11:45:37;;;;;;;4.97;2.58;;;;;;;;;;5030703;28;20053;-62
2023/03/18 11:48:15;;;;;;;4.25;2.60;;;;;;;;;;5032373;28;20052;-62
2023/03/18 11:51:05;;;;;;;4.18;2.33;;;;;;;;;;5042472;28;20045;-61
2023/03/18 11:53:42;;;;;;;3.05;2.28;;;;;;;;;;5041786;28;20351;-60
2023/03/18 11:56:32;;;;;;;3.20;2.22;;;;;;;;;;5038770;28;20037;-60
2023/03/18 11:59:30;;;;;;;3.65;2.30;;;;;;;;;;5032482;28;20083;-60
2023/03/18 12:02:19;;;;;;;3.75;2.53;;;;;;;;;;5031873;28;20025;-61
2023/03/18 12:05:22;;;;;;;6.45;2.60;;;;;;;;;;5032139;28;20037;-61
2023/03/18 12:07:48;;;;;;;3.97;2.60;;;;;;;;;;5032294;28;20076;-61
2023/03/18 12:10:25;;;;;;;5.45;2.65;;;;;;;;;;5032360;28;20065;-62
2023/03/18 12:13:16;;;;;;;3.60;2.40;;;;;;;;;;5031581;28;20055;-62
2023/03/18 12:15:56;;;;;;;;;;;;;;;;;;5032632;28;20041;-59
2023/03/18 12:18:51;;;;;;;3.40;2.53;;;;;;;;;;5012743;28;19992;-62
2023/03/18 12:21:35;;;;;;;3.35;2.20;;;;;;;;;;5031317;28;20064;-61
2023/03/18 12:24:10;;;;;;;3.03;2.28;;;;;;;;;;5031899;28;20159;-66
2023/03/18 12:26:50;;;;;;;4.20;2.20;;;;;;;;;;5032082;28;20116;-61
2023/03/18 12:29:53;;;;;;;2.67;2.00;;;;;;;;;;5037918;28;20037;-62
2023/03/18 12:32:39;;;;;;;3.55;2.30;;;;;;;;;;5031313;28;20426;-61
2023/03/18 12:35:41;;;;;;;4.97;2.00;;;;;;;;;;5026454;28;20033;-64
2023/03/18 12:38:37;;;;;;;3.13;2.10;;;;;;;;;;5023694;28;20055;-63
2023/03/18 12:41:53;;;;;;;3.65;2.22;;;;;;;;;;5025885;28;20022;-63
2023/03/18 12:44:33;;;;;;;3.28;2.08;;;;;;;;;;4929024;29;20040;-63
2023/03/18 12:47:14;;;;;;;3.25;2.20;;;;;;;;;;5013730;28;20057;-63
2023/03/18 12:49:51;;;;;;;3.83;2.17;;;;;;;;;;5031023;28;20087;-63
2023/03/18 12:52:29;;;;;;;4.30;1.83;;;;;;;;;;5027297;28;20037;-63
2023/03/18 12:55:02;;;;;;;2.95;2.10;;;;;;;;;;5029972;28;20036;-63
2023/03/18 12:57:48;;;;;;;2.80;1.92;;;;;;;;;;5022731;28;20120;-64
2023/03/18 13:00:52;;;;;;;4.63;1.90;;;;;;;;;;5031635;28;20029;-62
2023/03/18 13:03:38;;;;;;;4.13;1.92;;;;;;;;;;5021280;28;20107;-63
2023/03/18 13:06:11;;;;;;;2.80;1.90;;;;;;;;;;5031034;28;20030;-64
2023/03/18 13:09:14;;;;;;;4.30;2.03;;;;;;;;;;5030683;28;20104;-64
2023/03/18 13:11:58;;;;;;;3.67;2.00;;;;;;;;;;5014515;28;20049;-63
2023/03/18 13:14:49;;;;;;;3.80;1.88;;;;;;;;;;5014876;28;20026;-64
2023/03/18 13:17:31;;;;;;;;;;;;;;;;;;5028883;28;20041;-64
2023/03/18 13:20:08;;;;;;;3.05;1.92;;;;;;;;;;5022303;28;19913;-63
2023/03/18 13:22:44;;;;;;;4.05;1.90;;;;;;;;;;5031569;28;20041;-63
2023/03/18 13:25:22;;;;;;;2.88;1.92;;;;;;;;;;5030091;28;20064;-63
2023/03/18 13:27:51;;;;;;;2.38;1.80;;;;;;;;;;5030891;28;20040;-63
2023/03/18 13:30:19;;;;;;;2.35;1.90;;;;;;;;;;5030709;28;20030;-63
2023/03/18 13:33:09;;;;;;;3.33;1.70;;;;;;;;;;5048604;28;20068;-62
2023/03/18 13:35:51;;;;;;;3.60;1.83;;;;;;;;;;5035274;28;20033;-62
2023/03/18 13:38:28;;;;;;;2.97;1.60;;;;;;;;;;5050277;28;20123;-64
2023/03/18 13:40:59;;;;;;;2.63;1.98;;;;;;;;;;5047341;28;20029;-63
2023/03/18 13:43:27;;;;;;;3.25;1.70;;;;;;;;;;5029951;28;20030;-63
2023/03/18 13:45:55;;;;;;;3.15;1.85;;;;;;;;;;5026187;28;21962;-63
2023/03/18 13:48:32;;;;;;;1.95;1.60;;;;;;;;;;5029091;28;20413;-63
2023/03/18 13:50:58;;;;;;;4.20;1.70;;;;;;;;;;5030587;28;20037;-62
2023/03/18 13:53:28;;;;;;;3.08;1.80;;;;;;;;;;5030661;28;20448;-63
2023/03/18 13:55:56;;;;;;;2.58;1.58;;;;;;;;;;5033767;28;20045;-63
2023/03/18 13:58:44;;;;;;;2.65;1.60;;;;;;;;;;5016196;28;20037;-63
2023/03/18 14:01:31;;;;;;;2.50;1.73;;;;;;;;;;5040875;28;20037;-64
2023/03/18 14:04:19;;;;;;;3.13;1.70;;;;;;;;;;5053637;28;20060;-63
2023/03/18 14:06:51;;;;;;;2.60;1.77;;;;;;;;;;5033807;28;20033;-63
2023/03/18 14:09:28;;;;;;;1.95;1.55;;;;;;;;;;5033670;28;20029;-63
2023/03/18 14:12:02;;;;;;;4.63;1.77;;;;;;;;;;5034267;28;20510;-63
2023/03/18 14:14:55;;;;;;;1.92;1.50;;;;;;;;;;5033628;28;20032;-63
2023/03/18 14:17:26;;;;;;;4.38;1.90;;;;;;;;;;5032284;28;20382;-63
2023/03/18 14:19:54;;;;;;;4.80;1.90;;;;;;;;;;5016304;28;20101;-63
2023/03/18 14:22:27;;;;;;;2.80;1.85;;;;;;;;;;5051566;28;20086;-63
2023/03/18 14:25:20;;;;;;;2.85;1.58;;;;;;;;;;5039604;28;20040;-63
2023/03/18 14:27:50;;;;;;;6.50;1.80;;;;;;;;;;5034014;28;20021;-63
2023/03/18 14:30:42;;;;;;;3.13;1.88;;;;;;;;;;5049989;28;20041;-63
2023/03/18 14:33:17;;;;;;;4.60;1.70;;;;;;;;;;5046189;28;20041;-63
2023/03/18 14:36:06;;;;;;;2.85;1.50;;;;;;;;;;5033177;28;20025;-63
2023/03/18 14:39:00;;;;;;;2.72;1.60;;;;;;;;;;5031901;28;20126;-63
2023/03/18 14:41:28;;;;;;;3.10;1.58;;;;;;;;;;5032713;28;20030;-62
2023/03/18 14:44:07;;;;;;;4.13;1.60;;;;;;;;;;5016599;28;20060;-62
2023/03/18 14:46:40;;;;;;;4.22;2.00;;;;;;;;;;5030922;28;20485;-62
2023/03/18 14:49:28;;;;;;;3.28;1.70;;;;;;;;;;5048619;28;20541;-63
2023/03/18 14:51:54;;;;;;;3.25;1.90;;;;;;;;;;5030804;28;20425;-62
2023/03/18 14:54:23;;;;;;;3.67;2.10;;;;;;;;;;5032350;28;20029;-62
2023/03/18 14:56:56;;;;;;;3.70;1.92;;;;;;;;;;5035894;28;20021;-62
2023/03/18 14:59:25;;;;;;;5.35;2.55;;;;;;;;;;5038109;28;20486;-62
2023/03/18 15:01:52;;;;;;;5.75;2.70;;;;;;;;;;5032612;28;20037;-62
2023/03/18 15:04:26;;;;;;;6.10;2.50;;;;;;;;;;5030118;28;20044;-62